Аэропорт: Ширак. Гюмри

ICAO: UDSG

METAR:
2018/11/21 18:30
UDSG 211830Z 06002KT 5000 -RA BR OVC033 04/01 Q1014 R02/CLRD70 NOSIG
METAR:
2018/11/21 18:00
TAF UDSG 211701Z 2118/2218 20006KT 5000 BR BKN040 
      TEMPO 2118/2206 27016KT 2000 RASN OVC020